Fairmount, Georgia
Current Conditions -  °F | °C
As of 10:55 PM on Tuesday 25 Nov 2014 (Local Time) from KCNI Reporting Station
Broken Clouds Broken Clouds  
Wind Chill: 50°   Ceiling: 10000
Heat Index: 50°   Visibility: 10mi
Dew Point: 27°   Wind: 0mph
Humidity: 40%   Direction: NA
Pressure: 30.03"   Gusts: NA
Location:  34.44°N, 84.7°W
Report Text: KCNI 260355Z AUTO 00000KT 10SM BKN100 10/M03 A3003 RMK AO2
Loading
Personal Weather Stations






























Interactive Weather Map New forecast layout! Learn more

10-Day Weather Forecast

Advertisements
Track Severe Weather on mobile